createdAt,value
2018-05-08T00:02:07.193Z,4.00
2018-05-08T00:04:34.673Z,3.83
2018-05-08T00:07:02.145Z,3.93
2018-05-08T00:09:29.629Z,4.00
2018-05-08T00:11:57.094Z,3.83
2018-05-08T00:14:24.561Z,4.00
2018-05-08T00:16:52.041Z,3.80
2018-05-08T00:19:19.512Z,3.67
2018-05-08T00:21:46.997Z,3.70
2018-05-08T00:24:15.232Z,3.47
2018-05-08T00:26:42.737Z,4.27
2018-05-08T00:29:10.224Z,4.03
2018-05-08T00:31:37.690Z,4.17
2018-05-08T00:34:05.186Z,4.07
2018-05-08T00:36:33.421Z,4.10
2018-05-08T00:39:00.895Z,3.63
2018-05-08T00:41:28.377Z,3.90
2018-05-08T00:43:56.612Z,3.30
2018-05-08T00:46:24.405Z,3.50
2018-05-08T00:48:51.872Z,3.63
2018-05-08T00:51:20.108Z,4.07
2018-05-08T00:53:47.606Z,3.50
2018-05-08T00:56:15.836Z,4.13
2018-05-08T00:58:43.329Z,4.00
2018-05-08T01:01:11.570Z,4.03
2018-05-08T01:03:39.041Z,3.63
2018-05-08T01:06:06.529Z,4.10
2018-05-08T01:08:34.756Z,3.70
2018-05-08T01:11:02.253Z,4.50
2018-05-08T01:13:30.485Z,3.50
2018-05-08T01:15:57.972Z,4.00
2018-05-08T01:18:25.452Z,4.00
2018-05-08T01:20:52.940Z,3.80
2018-05-08T01:23:20.414Z,4.57
2018-05-08T01:25:47.996Z,4.33
2018-05-08T01:28:15.460Z,4.07
2018-05-08T01:30:43.693Z,4.07
2018-05-08T01:33:11.177Z,3.50
2018-05-08T01:35:38.640Z,4.40
2018-05-08T01:38:06.128Z,4.40
2018-05-08T01:40:33.600Z,3.93
2018-05-08T01:43:01.089Z,4.07
2018-05-08T01:45:28.557Z,4.50
2018-05-08T01:47:56.826Z,4.10
2018-05-08T01:50:24.288Z,4.17
2018-05-08T01:52:51.769Z,4.20
2018-05-08T01:55:19.997Z,4.20
2018-05-08T01:57:47.484Z,4.00
2018-05-08T02:00:14.962Z,4.30
2018-05-08T02:02:43.214Z,4.17
2018-05-08T02:05:11.454Z,4.20
2018-05-08T02:07:38.937Z,4.20
2018-05-08T02:10:06.437Z,4.50
2018-05-08T02:12:33.925Z,4.63
2018-05-08T02:15:01.427Z,4.70
2018-05-08T02:17:28.893Z,4.87
2018-05-08T02:19:57.167Z,4.23
2018-05-08T02:22:24.637Z,4.37
2018-05-08T02:24:53.832Z,4.33
2018-05-08T02:27:21.309Z,4.40
2018-05-08T02:29:48.793Z,4.87
2018-05-08T02:32:16.268Z,4.37
2018-05-08T02:34:43.805Z,4.67
2018-05-08T02:37:11.277Z,4.30
2018-05-08T02:39:40.281Z,4.27
2018-05-08T02:42:07.749Z,3.53
2018-05-08T02:44:36.005Z,4.47
2018-05-08T02:47:03.490Z,3.50
2018-05-08T02:49:31.765Z,4.53
2018-05-08T02:51:59.241Z,5.00
2018-05-08T02:54:26.704Z,4.40
2018-05-08T02:56:54.192Z,4.87
2018-05-08T02:59:21.700Z,5.03
2018-05-08T03:01:49.180Z,4.70
2018-05-08T03:04:16.683Z,4.70
2018-05-08T03:06:44.961Z,5.30
2018-05-08T03:09:12.434Z,5.03
2018-05-08T03:11:40.682Z,4.80
2018-05-08T03:14:08.923Z,4.77
2018-05-08T03:16:36.409Z,5.27
2018-05-08T03:19:03.873Z,5.77
2018-05-08T03:21:31.372Z,4.97
2018-05-08T03:23:58.835Z,5.40
2018-05-08T03:26:26.318Z,5.67
2018-05-08T03:28:53.800Z,5.03
2018-05-08T03:31:21.286Z,5.50
2018-05-08T03:33:49.521Z,5.50
2018-05-08T03:36:16.993Z,5.13
2018-05-08T03:38:44.476Z,5.90
2018-05-08T03:41:11.954Z,5.57
2018-05-08T03:43:39.436Z,6.47
2018-05-08T03:46:06.913Z,6.73
2018-05-08T03:48:34.392Z,6.03
2018-05-08T03:51:02.621Z,6.63
2018-05-08T03:53:30.109Z,5.70
2018-05-08T03:55:58.341Z,6.77
2018-05-08T03:58:25.824Z,6.03
2018-05-08T04:01:05.336Z,6.33
2018-05-08T04:03:45.264Z,6.00
2018-05-08T04:09:11.257Z,6.00
2018-05-08T04:11:38.725Z,5.90
2018-05-08T04:14:06.993Z,6.07
2018-05-08T04:16:35.309Z,6.43
2018-05-08T04:19:02.867Z,6.00
2018-05-08T04:21:30.426Z,6.03
2018-05-08T04:23:57.889Z,5.83
2018-05-08T04:26:25.373Z,5.93
2018-05-08T04:28:52.845Z,6.03
2018-05-08T04:31:20.337Z,5.60
2018-05-08T04:33:47.796Z,5.57
2018-05-08T04:36:15.284Z,5.30
2018-05-08T04:38:42.747Z,5.33
2018-05-08T04:41:10.238Z,5.60
2018-05-08T04:43:38.465Z,5.23
2018-05-08T04:46:05.949Z,4.70
2018-05-08T04:48:33.414Z,5.10
2018-05-08T04:51:00.909Z,4.80
2018-05-08T04:53:28.377Z,4.33
2018-05-08T04:55:55.899Z,4.93
2018-05-08T04:58:23.372Z,4.70
2018-05-08T05:00:50.857Z,4.50
2018-05-08T05:03:18.725Z,4.00
2018-05-08T05:05:46.200Z,4.27
2018-05-08T05:08:13.688Z,4.13
2018-05-08T05:10:41.950Z,4.27
2018-05-08T05:13:09.449Z,3.97
2018-05-08T05:15:36.930Z,4.20
2018-05-08T05:18:04.409Z,3.70
2018-05-08T05:20:31.944Z,4.30
2018-05-08T05:22:59.424Z,4.47
2018-05-08T05:25:27.681Z,4.40
2018-05-08T05:27:55.175Z,5.17
2018-05-08T05:30:23.400Z,5.47
2018-05-08T05:32:50.881Z,5.10
2018-05-08T05:35:19.318Z,4.70
2018-05-08T05:37:46.822Z,4.60
2018-05-08T05:40:15.147Z,3.90
2018-05-08T05:42:42.853Z,4.03
2018-05-08T05:45:11.013Z,3.80
2018-05-08T05:47:38.497Z,3.50
2018-05-08T05:50:05.983Z,3.67
2018-05-08T05:52:33.454Z,3.70
2018-05-08T05:55:00.945Z,3.60
2018-05-08T05:57:28.416Z,3.80
2018-05-08T05:59:55.901Z,3.50
2018-05-08T06:02:24.133Z,3.53
2018-05-08T06:04:51.624Z,3.73
2018-05-08T06:07:19.853Z,3.43
2018-05-08T06:09:48.116Z,3.77
2018-05-08T06:12:15.604Z,3.63
2018-05-08T06:14:44.598Z,3.43
2018-05-08T06:17:12.089Z,3.33
2018-05-08T06:19:39.622Z,3.30
2018-05-08T06:22:07.857Z,3.33
2018-05-08T06:24:35.362Z,2.60
2018-05-08T06:27:03.590Z,2.90
2018-05-08T06:29:31.058Z,2.93
2018-05-08T06:31:58.561Z,3.43
2018-05-08T06:34:26.041Z,3.37
2018-05-08T06:36:53.525Z,3.60
2018-05-08T06:39:20.997Z,3.43
2018-05-08T06:41:48.481Z,3.30
2018-05-08T06:44:16.048Z,3.30
2018-05-08T06:46:43.493Z,3.07
2018-05-08T06:49:11.024Z,3.33
2018-05-08T06:51:39.272Z,3.07
2018-05-08T06:54:06.752Z,3.10
2018-05-08T06:56:34.238Z,3.20
2018-05-08T06:59:02.476Z,3.20
2018-05-08T07:01:29.969Z,3.33
2018-05-08T07:03:58.201Z,2.80
2018-05-08T07:06:25.685Z,2.77
2018-05-08T07:08:53.148Z,2.97
2018-05-08T07:11:21.385Z,3.13
2018-05-08T07:13:48.873Z,3.00
2018-05-08T07:16:17.320Z,2.30
2018-05-08T07:18:44.621Z,2.50
2018-05-08T07:21:12.090Z,2.63
2018-05-08T07:23:39.577Z,2.30
2018-05-08T07:26:07.057Z,3.20
2018-05-08T07:28:34.537Z,3.00
2018-05-08T07:31:02.784Z,2.50
2018-05-08T07:33:30.268Z,3.23
2018-05-08T07:35:58.504Z,3.20
2018-05-08T07:38:25.989Z,2.80
2018-05-08T07:40:54.226Z,2.70
2018-05-08T07:43:21.720Z,3.47
2018-05-08T07:45:49.952Z,2.77
2018-05-08T07:48:17.438Z,2.93
2018-05-08T07:50:44.908Z,4.03
2018-05-08T07:53:13.176Z,2.60
2018-05-08T07:55:41.413Z,3.50
2018-05-08T07:58:08.877Z,3.30
2018-05-08T08:00:36.361Z,3.13
2018-05-08T08:03:04.592Z,3.33
2018-05-08T08:05:32.089Z,2.67
2018-05-08T08:07:59.557Z,3.10
2018-05-08T08:10:27.800Z,2.83
2018-05-08T08:12:55.274Z,3.00
2018-05-08T08:15:22.804Z,3.03
2018-05-08T08:17:50.276Z,3.00
2018-05-08T08:20:17.756Z,2.90
2018-05-08T08:22:45.993Z,2.80
2018-05-08T08:25:13.474Z,2.77
2018-05-08T08:27:40.944Z,2.90
2018-05-08T08:30:09.196Z,2.77
2018-05-08T08:32:37.429Z,3.20
2018-05-08T08:35:04.914Z,2.60
2018-05-08T08:37:32.405Z,3.37
2018-05-08T08:40:00.645Z,3.00
2018-05-08T08:42:28.132Z,2.87
2018-05-08T08:44:56.373Z,2.80
2018-05-08T08:47:23.862Z,2.90
2018-05-08T08:49:52.088Z,3.00
2018-05-08T08:52:19.593Z,3.00
2018-05-08T08:54:47.829Z,2.60
2018-05-08T08:57:15.315Z,2.73
2018-05-08T08:59:43.565Z,2.47
2018-05-08T09:02:11.051Z,3.20
2018-05-08T09:04:39.278Z,2.80
2018-05-08T09:07:06.760Z,2.93
2018-05-08T09:09:34.992Z,3.00
2018-05-08T09:12:02.472Z,3.10
2018-05-08T09:14:29.937Z,2.80
2018-05-08T09:16:57.461Z,2.83
2018-05-08T09:19:24.926Z,2.83
2018-05-08T09:21:52.413Z,2.77
2018-05-08T09:24:19.896Z,3.83
2018-05-08T09:26:48.124Z,2.97
2018-05-08T09:29:15.605Z,2.60
2018-05-08T09:31:43.072Z,2.80
2018-05-08T09:34:11.325Z,2.57
2018-05-08T09:36:38.787Z,2.57
2018-05-08T09:39:06.273Z,2.37
2018-05-08T09:41:34.502Z,2.63
2018-05-08T09:44:01.989Z,2.63
2018-05-08T09:46:29.456Z,2.47
2018-05-08T09:48:57.758Z,3.03
2018-05-08T09:51:25.236Z,2.90
2018-05-08T09:53:52.732Z,2.93
2018-05-08T09:56:20.205Z,2.77
2018-05-08T09:58:48.457Z,2.73
2018-05-08T10:01:15.917Z,2.40
2018-05-08T10:03:43.405Z,2.60
2018-05-08T10:06:10.908Z,2.40
2018-05-08T10:08:38.372Z,2.30
2018-05-08T10:11:05.890Z,2.47
2018-05-08T10:13:33.369Z,1.73
2018-05-08T10:16:00.857Z,2.37
2018-05-08T10:18:29.089Z,2.23
2018-05-08T10:20:56.575Z,2.20
2018-05-08T10:23:24.820Z,2.20
2018-05-08T10:25:52.305Z,2.43
2018-05-08T10:28:19.771Z,2.10
2018-05-08T10:30:47.273Z,2.23
2018-05-08T10:33:14.733Z,2.40
2018-05-08T10:35:42.226Z,2.33
2018-05-08T10:38:09.692Z,2.10
2018-05-08T10:40:37.214Z,2.20
2018-05-08T10:43:04.687Z,2.00
2018-05-08T10:45:32.157Z,1.93
2018-05-08T10:47:59.639Z,2.00
2018-05-08T10:50:27.873Z,1.83
2018-05-08T10:52:55.352Z,2.30
2018-05-08T10:55:22.821Z,2.17
2018-05-08T10:57:51.076Z,1.90
2018-05-08T11:00:18.541Z,1.77
2018-05-08T11:02:46.088Z,1.97
2018-05-08T11:05:13.572Z,2.13
2018-05-08T11:07:41.819Z,2.17
2018-05-08T11:10:09.282Z,2.17
2018-05-08T11:12:36.765Z,2.10
2018-05-08T11:15:04.996Z,1.50
2018-05-08T11:17:32.504Z,1.93
2018-05-08T11:19:59.969Z,1.90
2018-05-08T11:22:27.476Z,2.07
2018-05-08T11:24:54.945Z,1.63
2018-05-08T11:27:23.185Z,2.03
2018-05-08T11:29:50.668Z,1.90
2018-05-08T11:32:18.152Z,1.50
2018-05-08T11:34:45.649Z,1.80
2018-05-08T11:37:13.146Z,2.10
2018-05-08T11:39:41.397Z,1.67
2018-05-08T11:42:08.869Z,1.93
2018-05-08T11:44:36.386Z,1.50
2018-05-08T11:47:03.845Z,1.77
2018-05-08T11:49:31.325Z,1.93
2018-05-08T11:51:58.797Z,2.03
2018-05-08T11:54:27.060Z,1.70
2018-05-08T11:56:54.532Z,1.87
2018-05-08T11:59:22.789Z,1.70
2018-05-08T12:01:50.253Z,1.60
2018-05-08T12:04:17.729Z,1.77
2018-05-08T12:06:45.989Z,1.70
2018-05-08T12:09:13.519Z,1.93
2018-05-08T12:11:40.981Z,1.90
2018-05-08T12:14:08.446Z,1.97
2018-05-08T12:16:35.956Z,1.67
2018-05-08T12:19:03.413Z,2.00
2018-05-08T12:21:30.968Z,1.60
2018-05-08T12:23:58.445Z,1.90
2018-05-08T12:26:25.929Z,2.20
2018-05-08T12:28:53.393Z,1.90
2018-05-08T12:31:20.893Z,2.10
2018-05-08T12:33:48.368Z,1.90
2018-05-08T12:36:15.945Z,1.60
2018-05-08T12:38:43.354Z,1.90
2018-05-08T12:41:10.842Z,1.60
2018-05-08T12:43:38.332Z,1.70
2018-05-08T12:46:06.589Z,1.73
2018-05-08T12:48:34.060Z,1.80
2018-05-08T12:51:01.527Z,1.97
2018-05-08T12:53:29.788Z,1.70
2018-05-08T12:55:57.262Z,1.60
2018-05-08T12:58:25.509Z,1.57
2018-05-08T13:00:52.978Z,1.30
2018-05-08T13:03:20.461Z,1.47
2018-05-08T13:05:48.689Z,1.50
2018-05-08T13:08:16.180Z,1.43
2018-05-08T13:10:44.421Z,1.57
2018-05-08T13:13:11.905Z,1.47
2018-05-08T13:15:40.150Z,1.27
2018-05-08T13:18:07.637Z,1.70
2018-05-08T13:20:35.877Z,1.40
2018-05-08T13:23:03.364Z,1.63
2018-05-08T13:25:30.849Z,1.47
2018-05-08T13:27:58.319Z,1.50
2018-05-08T13:30:25.804Z,1.70
2018-05-08T13:32:53.287Z,1.40
2018-05-08T13:35:20.889Z,1.30
2018-05-08T13:37:48.369Z,1.70
2018-05-08T13:40:15.903Z,1.30
2018-05-08T13:42:43.369Z,1.23
2018-05-08T13:45:10.858Z,1.53
2018-05-08T13:47:38.345Z,1.50
2018-05-08T13:50:06.609Z,1.67
2018-05-08T13:52:34.849Z,1.60
2018-05-08T13:55:02.388Z,1.50
2018-05-08T13:57:29.855Z,1.60
2018-05-08T13:59:57.348Z,1.83
2018-05-08T14:02:24.817Z,1.37
2018-05-08T14:04:52.335Z,1.40
2018-05-08T14:07:19.797Z,1.40
2018-05-08T14:09:47.265Z,1.60
2018-05-08T14:12:14.749Z,1.70
2018-05-08T14:14:42.984Z,1.40
2018-05-08T14:17:10.472Z,1.33
2018-05-08T14:19:38.713Z,1.40
2018-05-08T14:22:06.201Z,1.53
2018-05-08T14:24:34.432Z,1.83
2018-05-08T14:27:01.915Z,1.40
2018-05-08T14:29:29.404Z,1.40
2018-05-08T14:31:56.911Z,1.60
2018-05-08T14:34:24.373Z,1.60
2018-05-08T14:36:51.864Z,1.60
2018-05-08T14:39:20.098Z,1.50
2018-05-08T14:41:47.581Z,1.43
2018-05-08T14:44:15.050Z,1.30
2018-05-08T14:46:43.317Z,1.40
2018-05-08T14:49:10.822Z,1.60
2018-05-08T14:51:38.285Z,1.50
2018-05-08T14:54:05.777Z,1.30
2018-05-08T14:56:33.260Z,1.73
2018-05-08T14:59:00.772Z,1.43
2018-05-08T15:01:28.245Z,1.50
2018-05-08T15:03:55.729Z,1.50
2018-05-08T15:06:23.960Z,1.90
2018-05-08T15:08:51.445Z,1.60
2018-05-08T15:11:19.673Z,1.50
2018-05-08T15:13:47.174Z,1.30
2018-05-08T15:16:15.408Z,1.40
2018-05-08T15:18:42.896Z,1.30
2018-05-08T15:21:10.369Z,1.80
2018-05-08T15:23:37.872Z,1.53
2018-05-08T15:26:05.337Z,1.50
2018-05-08T15:28:32.825Z,1.37
2018-05-08T15:31:00.301Z,1.30
2018-05-08T15:33:27.770Z,1.20
2018-05-08T15:35:55.253Z,1.50
2018-05-08T15:38:22.749Z,1.40
2018-05-08T15:40:50.245Z,1.37
2018-05-08T15:43:17.721Z,1.63
2018-05-08T15:45:45.201Z,1.47
2018-05-08T15:48:12.691Z,1.40
2018-05-08T15:50:40.953Z,1.40
2018-05-08T15:53:09.189Z,1.40
2018-05-08T15:55:36.675Z,1.50
2018-05-08T15:58:04.141Z,1.30
2018-05-08T16:00:32.386Z,1.40
2018-05-08T16:02:59.853Z,1.40
2018-05-08T16:05:27.352Z,1.60
2018-05-08T16:07:55.041Z,1.30
2018-05-08T16:10:22.362Z,1.40
2018-05-08T16:12:49.793Z,1.50
2018-05-08T16:15:18.061Z,1.50
2018-05-08T16:17:46.313Z,1.37
2018-05-08T16:20:13.787Z,1.73
2018-05-08T16:22:41.292Z,1.30
2018-05-08T16:25:08.769Z,1.40
2018-05-08T16:27:36.273Z,1.50
2018-05-08T16:30:04.588Z,1.30
2018-05-08T16:32:32.002Z,1.37
2018-05-08T16:35:00.238Z,1.23
2018-05-08T16:37:27.773Z,1.40
2018-05-08T16:39:55.241Z,1.63
2018-05-08T16:42:22.760Z,1.50
2018-05-08T16:44:51.067Z,1.30
2018-05-08T16:47:18.555Z,1.60
2018-05-08T16:49:46.044Z,1.43
2018-05-08T16:52:14.302Z,1.50
2018-05-08T16:54:41.776Z,1.47
2018-05-08T16:57:10.005Z,1.47
2018-05-08T16:59:37.507Z,1.50
2018-05-08T17:02:05.777Z,1.50
2018-05-08T17:04:34.025Z,1.20
2018-05-08T17:07:01.515Z,1.50
2018-05-08T17:09:29.077Z,1.93
2018-05-08T17:11:57.309Z,1.60
2018-05-08T17:14:24.801Z,1.60
2018-05-08T17:16:53.043Z,1.53
2018-05-08T17:19:20.590Z,1.90
2018-05-08T17:21:48.797Z,1.83
2018-05-08T17:24:17.054Z,1.80
2018-05-08T17:26:44.524Z,1.47
2018-05-08T17:29:12.013Z,1.50
2018-05-08T17:31:39.489Z,1.53
2018-05-08T17:34:07.078Z,1.80
2018-05-08T17:36:34.521Z,2.23
2018-05-08T17:39:01.998Z,1.77
2018-05-08T17:41:29.488Z,1.50
2018-05-08T17:43:56.958Z,1.73
2018-05-08T17:46:24.437Z,1.60
2018-05-08T17:48:51.913Z,1.70
2018-05-08T17:51:19.396Z,1.73
2018-05-08T17:53:47.645Z,1.87
2018-05-08T17:56:15.133Z,1.60
2018-05-08T17:58:43.377Z,1.73
2018-05-08T18:01:10.995Z,1.73
2018-05-08T18:03:38.461Z,1.80
2018-05-08T18:06:06.089Z,1.67
2018-05-08T18:08:34.340Z,1.70
2018-05-08T18:11:01.825Z,1.67
2018-05-08T18:13:29.318Z,1.70
2018-05-08T18:15:56.785Z,1.63
2018-05-08T18:18:25.177Z,1.90
2018-05-08T18:20:52.642Z,2.07
2018-05-08T18:23:20.889Z,2.03
2018-05-08T18:25:48.505Z,2.23
2018-05-08T18:28:15.989Z,1.83
2018-05-08T18:30:43.474Z,1.90
2018-05-08T18:33:10.950Z,1.47
2018-05-08T18:35:39.393Z,3.50
2018-05-08T18:38:06.865Z,1.90
2018-05-08T18:40:34.352Z,1.50
2018-05-08T18:43:02.661Z,3.33
2018-05-08T18:45:30.129Z,2.23
2018-05-08T18:47:57.631Z,2.50
2018-05-08T18:50:25.874Z,4.53
2018-05-08T18:52:53.357Z,2.30
2018-05-08T18:55:21.596Z,2.57
2018-05-08T18:57:49.147Z,2.00
2018-05-08T19:00:21.253Z,1.80
2018-05-08T19:02:49.518Z,2.00
2018-05-08T19:05:16.997Z,2.10
2018-05-08T19:07:45.572Z,2.23
2018-05-08T19:10:13.041Z,2.33
2018-05-08T19:12:42.282Z,2.90
2018-05-08T19:18:12.235Z,2.77
2018-05-08T19:20:39.720Z,2.27
2018-05-08T19:23:07.979Z,2.17
2018-05-08T19:25:35.481Z,2.43
2018-05-08T19:30:45.157Z,2.20
2018-05-08T19:33:12.638Z,2.50
2018-05-08T19:35:46.514Z,2.37
2018-05-08T19:38:15.923Z,1.70
2018-05-08T19:40:43.418Z,3.63
2018-05-08T19:43:10.898Z,4.10
2018-05-08T19:45:38.392Z,2.93
2018-05-08T19:48:05.877Z,2.97
2018-05-08T19:50:33.358Z,2.60
2018-05-08T19:53:00.867Z,2.40
2018-05-08T19:55:29.096Z,2.30
2018-05-08T19:57:56.682Z,2.53
2018-05-08T20:00:24.070Z,2.63
2018-05-08T20:02:52.337Z,2.30
2018-05-08T20:05:20.571Z,2.30
2018-05-08T20:07:48.069Z,1.93
2018-05-08T20:10:16.386Z,1.90
2018-05-08T20:12:43.873Z,2.10
2018-05-08T20:15:11.349Z,1.90
2018-05-08T20:17:39.580Z,1.70
2018-05-08T20:20:07.065Z,2.10
2018-05-08T20:22:34.533Z,2.20
2018-05-08T20:25:02.331Z,2.03
2018-05-08T20:27:29.865Z,2.50
2018-05-08T20:29:58.134Z,2.33
2018-05-08T20:32:26.436Z,2.77
2018-05-08T20:34:54.217Z,2.30
2018-05-08T20:37:21.708Z,2.63
2018-05-08T20:39:49.194Z,2.10
2018-05-08T20:42:17.445Z,2.10
2018-05-08T20:44:44.913Z,2.50
2018-05-08T20:47:13.166Z,2.30
2018-05-08T20:49:40.659Z,2.17
2018-05-08T20:52:08.154Z,2.67
2018-05-08T20:54:35.628Z,2.10
2018-05-08T20:57:03.129Z,2.07
2018-05-08T20:59:30.592Z,2.00
2018-05-08T21:01:58.082Z,2.50
2018-05-08T21:04:25.559Z,2.37
2018-05-08T21:06:53.044Z,1.90
2018-05-08T21:09:21.306Z,2.10
2018-05-08T21:11:48.773Z,1.73
2018-05-08T21:14:17.017Z,1.73
2018-05-08T21:16:44.481Z,2.00
2018-05-08T21:19:11.980Z,1.90
2018-05-08T21:21:39.455Z,1.73
2018-05-08T21:24:06.938Z,1.83
2018-05-08T21:26:34.409Z,2.10
2018-05-08T21:29:01.910Z,1.63
2018-05-08T21:31:29.377Z,1.90
2018-05-08T21:33:56.919Z,2.13
2018-05-08T21:36:24.390Z,1.67
2018-05-08T21:38:51.878Z,1.80
2018-05-08T21:41:19.360Z,2.00
2018-05-08T21:43:47.593Z,1.97
2018-05-08T21:46:15.089Z,1.80
2018-05-08T21:48:43.345Z,1.90
2018-05-08T21:51:10.845Z,1.97
2018-05-08T21:53:38.313Z,1.73
2018-05-08T21:56:05.808Z,2.20
2018-05-08T21:58:33.268Z,1.80
2018-05-08T22:01:00.753Z,1.70
2018-05-08T22:03:28.243Z,1.90
2018-05-08T22:05:55.761Z,1.80
2018-05-08T22:08:23.998Z,1.60
2018-05-08T22:10:51.466Z,1.80
2018-05-08T22:13:18.945Z,1.90
2018-05-08T22:15:47.177Z,2.00
2018-05-08T22:18:14.661Z,2.07
2018-05-08T22:20:42.131Z,2.07
2018-05-08T22:23:10.376Z,2.00
2018-05-08T22:25:37.848Z,2.00
2018-05-08T22:28:05.334Z,2.07
2018-05-08T22:30:33.572Z,1.73
2018-05-08T22:33:01.082Z,2.17
2018-05-08T22:35:28.552Z,1.60
2018-05-08T22:37:56.026Z,1.83
2018-05-08T22:40:23.528Z,1.80
2018-05-08T22:42:51.010Z,1.77
2018-05-08T22:45:18.485Z,1.80
2018-05-08T22:47:45.953Z,1.87
2018-05-08T22:50:13.493Z,2.00
2018-05-08T22:52:40.973Z,1.97
2018-05-08T22:55:08.470Z,1.80
2018-05-08T22:57:36.701Z,1.93
2018-05-08T23:00:04.488Z,2.00
2018-05-08T23:02:31.960Z,1.80
2018-05-08T23:04:59.428Z,2.20
2018-05-08T23:07:26.912Z,2.10
2018-05-08T23:09:54.377Z,2.00
2018-05-08T23:12:21.860Z,1.97
2018-05-08T23:14:49.330Z,2.20
2018-05-08T23:17:17.581Z,1.90
2018-05-08T23:19:45.053Z,2.20
2018-05-08T23:22:12.540Z,1.87
2018-05-08T23:24:40.005Z,2.47
2018-05-08T23:27:07.493Z,2.53
2018-05-08T23:29:34.960Z,2.60
2018-05-08T23:32:02.437Z,2.40
2018-05-08T23:34:30.684Z,2.27
2018-05-08T23:36:58.149Z,2.33
2018-05-08T23:39:25.632Z,2.17
2018-05-08T23:41:53.869Z,1.97
2018-05-08T23:44:21.353Z,2.20
2018-05-08T23:46:48.856Z,2.13
2018-05-08T23:49:16.336Z,2.30
2018-05-08T23:51:43.804Z,2.00
2018-05-08T23:54:11.304Z,2.10
2018-05-08T23:56:38.773Z,2.30
2018-05-08T23:59:06.242Z,2.37
